Time;durP1;ratioP1;P1;durP2;ratioP2;P2;SDS_P1;SDS_P2;PMS_P1;PMS_P2;Temp;Humidity;BMP_temperature;BMP_pressure;BME280_temperature;BME280_humidity;BME280_pressure;Samples;Min_cycle;Max_cycle;Signal;HPM_P1;HPM_P2
2023/03/08 00:00:26;;;;;;;6.07;4.75;;;;;;;-6.78;63.05;96736.00;6322244;28;20393;-67
2023/03/08 00:03:28;;;;;;;;;;;;;;;-6.67;62.94;96742.84;6322890;28;20074;-66
2023/03/08 00:06:34;;;;;;;5.38;3.40;;;;;;;-6.81;62.90;96760.75;6321953;28;19955;-66
2023/03/08 00:09:39;;;;;;;7.05;3.90;;;;;;;-6.87;62.97;96761.59;6321929;28;20067;-67
2023/03/08 00:12:44;;;;;;;5.13;3.95;;;;;;;-6.90;63.16;96753.06;6321901;28;20062;-68
2023/03/08 00:15:49;;;;;;;5.72;3.88;;;;;;;-6.98;62.75;96760.72;6322026;28;20522;-67
2023/03/08 00:18:54;;;;;;;5.82;3.65;;;;;;;-7.13;63.31;96761.53;6321693;28;20066;-67
2023/03/08 00:21:59;;;;;;;4.20;2.35;;;;;;;-7.15;63.32;96764.94;6321764;28;20097;-67
2023/03/08 00:25:04;;;;;;;4.68;3.05;;;;;;;-7.10;63.37;96770.91;6321969;28;20062;-66
2023/03/08 00:28:09;;;;;;;6.15;3.53;;;;;;;-7.08;62.89;96774.31;6321523;28;20042;-67
2023/03/08 00:31:12;;;;;;;;;;;;;;;-6.84;62.39;96786.31;6321801;28;20044;-67
2023/03/08 00:34:17;;;;;;;4.40;3.17;;;;;;;-7.03;62.18;96790.53;6321223;28;19920;-67
2023/03/08 00:37:21;;;;;;;4.35;3.20;;;;;;;-7.15;62.52;96791.34;6321259;28;20418;-67
2023/03/08 00:40:24;;;;;;;4.10;3.70;;;;;;;-7.24;62.91;96797.28;6321606;28;20063;-66
2023/03/08 00:43:28;;;;;;;7.38;3.70;;;;;;;-7.34;63.35;96800.66;6320836;28;20075;-66
2023/03/08 00:46:29;;;;;;;3.85;2.78;;;;;;;-7.32;63.29;96809.19;6320597;28;20548;-66
2023/03/08 00:49:33;;;;;;;5.20;3.50;;;;;;;-7.27;62.98;96802.41;6320218;28;20421;-67
2023/03/08 00:52:40;;;;;;;4.63;3.05;;;;;;;-7.34;63.84;96815.13;6320871;28;20052;-68
2023/03/08 00:55:55;;;;;;;6.32;4.00;;;;;;;-7.35;63.31;96819.41;6320939;28;20085;-67
2023/03/08 00:58:59;;;;;;;4.07;3.10;;;;;;;-7.16;63.57;96824.56;6321597;28;20048;-67
2023/03/08 01:02:03;;;;;;;5.07;3.78;;;;;;;-7.21;63.70;96832.25;6321197;28;20040;-66
2023/03/08 01:05:07;;;;;;;4.93;3.92;;;;;;;-7.28;63.94;96828.78;6320630;28;20051;-66
2023/03/08 01:08:12;;;;;;;6.10;4.28;;;;;;;-7.17;63.53;96833.94;6320548;28;20501;-67
2023/03/08 01:11:21;;;;;;;5.40;3.95;;;;;;;-7.11;63.06;96843.34;6320686;28;20494;-68
2023/03/08 01:14:26;;;;;;;6.30;4.25;;;;;;;-7.25;63.44;96843.28;6320482;28;20417;-67
2023/03/08 01:17:30;;;;;;;6.80;4.28;;;;;;;-7.14;62.94;96848.44;6320417;28;20048;-67
2023/03/08 01:20:32;;;;;;;5.50;3.83;;;;;;;-7.24;63.23;96843.31;6319964;28;20123;-67
2023/03/08 01:23:37;;;;;;;5.63;4.68;;;;;;;-7.36;63.86;96850.94;6319831;28;20075;-67
2023/03/08 01:26:44;;;;;;;6.47;4.18;;;;;;;-7.40;63.40;96856.84;6319927;28;20048;-67
2023/03/08 01:29:45;;;;;;;6.15;3.47;;;;;;;-7.40;64.11;96869.63;6319976;28;20040;-66
2023/03/08 01:32:49;;;;;;;;;;;;;;;-7.33;63.30;96873.94;6320379;28;20060;-67
2023/03/08 01:35:50;;;;;;;5.57;3.90;;;;;;;-7.56;64.00;96872.94;6319665;28;19919;-66
2023/03/08 01:38:54;;;;;;;4.75;3.30;;;;;;;-7.58;64.37;96869.56;6319598;28;20040;-66
2023/03/08 01:41:56;;;;;;;6.32;4.47;;;;;;;-7.54;64.39;96878.94;6318745;28;20047;-67
2023/03/08 01:45:04;;;;;;;9.23;4.90;;;;;;;-7.53;64.29;96885.75;6319232;28;20051;-67
2023/03/08 01:48:07;;;;;;;7.53;4.78;;;;;;;-7.50;64.03;96890.88;6319862;28;20059;-67
2023/03/08 01:51:14;;;;;;;7.47;4.55;;;;;;;-7.47;63.68;96888.38;6319599;28;20044;-67
2023/03/08 01:54:25;;;;;;;9.75;5.18;;;;;;;-7.58;64.56;96903.63;6318980;28;20397;-66
2023/03/08 01:57:32;;;;;;;8.32;5.00;;;;;;;-7.57;64.43;96902.75;6319080;28;20135;-66
2023/03/08 02:00:33;;;;;;;6.90;4.78;;;;;;;-7.64;64.54;96902.69;6318893;28;20059;-66
2023/03/08 02:03:34;;;;;;;6.22;3.47;;;;;;;-7.69;64.43;96906.09;6317746;28;20052;-66
2023/03/08 02:06:38;;;;;;;6.35;4.20;;;;;;;-7.81;64.65;96900.91;6319195;28;20051;-66
2023/03/08 02:09:40;;;;;;;7.50;4.55;;;;;;;-7.83;65.21;96907.69;6318991;28;20044;-67
2023/03/08 02:12:41;;;;;;;8.57;4.35;;;;;;;-7.86;64.86;96907.69;6319318;28;20409;-67
2023/03/08 02:15:45;;;;;;;8.05;4.68;;;;;;;-7.82;65.04;96914.50;6319163;28;20050;-68
2023/03/08 02:19:00;;;;;;;8.75;5.03;;;;;;;-7.76;64.82;96909.44;6319199;28;20052;-67
2023/03/08 02:22:09;;;;;;;9.57;5.93;;;;;;;-7.62;64.47;96921.47;6318902;28;20059;-67
2023/03/08 02:25:22;;;;;;;5.07;3.65;;;;;;;-7.53;64.63;96926.63;6317366;28;20058;-67
2023/03/08 02:28:31;;;;;;;6.07;4.93;;;;;;;-7.48;64.17;96930.94;6319104;28;20501;-67
2023/03/08 02:31:35;;;;;;;8.15;4.75;;;;;;;-7.58;64.26;96928.31;6318696;28;20051;-67
2023/03/08 02:34:36;;;;;;;8.20;4.47;;;;;;;-7.63;64.40;96935.09;6317919;28;20052;-67
2023/03/08 02:37:40;;;;;;;7.30;4.15;;;;;;;-7.59;64.42;96931.69;6320548;28;20048;-67
2023/03/08 02:40:50;;;;;;;8.25;5.15;;;;;;;-7.50;63.84;96936.88;6319118;28;20044;-66
2023/03/08 02:43:57;;;;;;;8.73;5.63;;;;;;;-7.63;63.61;96942.75;6319004;28;20043;-66
2023/03/08 02:46:58;;;;;;;;;;;;;;;-7.71;64.28;96951.22;6318891;28;20393;-65
2023/03/08 02:50:01;;;;;;;7.60;4.43;;;;;;;-7.77;64.14;96958.81;6319162;28;19920;-67
2023/03/08 02:53:07;;;;;;;11.70;5.70;;;;;;;-7.97;64.94;96966.31;6318056;28;20414;-67
2023/03/08 02:56:11;;;;;;;7.07;3.53;;;;;;;-7.80;63.97;96963.91;6318093;28;20048;-67
2023/03/08 02:59:19;;;;;;;5.93;3.72;;;;;;;-7.70;63.13;96957.16;6318562;28;20565;-67
2023/03/08 03:02:20;;;;;;;7.13;5.13;;;;;;;-7.73;63.20;96968.25;6318717;28;20411;-68
2023/03/08 03:05:25;;;;;;;7.63;4.95;;;;;;;-7.76;63.42;96970.75;6318906;28;20051;-67
2023/03/08 03:08:34;;;;;;;8.48;4.70;;;;;;;-7.65;62.82;96978.50;6318801;28;20498;-67
2023/03/08 03:11:39;;;;;;;6.18;4.20;;;;;;;-7.54;63.12;96976.03;6318676;28;20117;-68
2023/03/08 03:14:47;;;;;;;6.18;3.40;;;;;;;-7.66;62.81;96965.72;6322668;28;20047;-67
2023/03/08 03:17:52;;;;;;;7.47;4.38;;;;;;;-7.54;63.32;96986.25;6322871;28;20401;-67
2023/03/08 03:21:04;;;;;;;4.13;2.83;;;;;;;-7.35;62.99;96987.25;6322727;28;20131;-66
2023/03/08 03:24:07;;;;;;;8.90;4.07;;;;;;;-7.20;62.37;96983.94;6323181;28;20158;-67
2023/03/08 03:27:09;;;;;;;6.43;4.57;;;;;;;-7.11;61.76;96981.44;6322986;28;20059;-68
2023/03/08 03:30:11;;;;;;;5.00;3.05;;;;;;;-7.02;61.63;96992.59;6323150;28;20040;-67
2023/03/08 03:33:17;;;;;;;6.68;4.13;;;;;;;-7.00;61.31;96990.88;6322950;28;20413;-68
2023/03/08 03:36:20;;;;;;;6.88;3.78;;;;;;;-6.91;61.80;96986.66;6320923;28;20044;-67
2023/03/08 03:39:24;;;;;;;5.00;3.17;;;;;;;-6.88;61.11;96984.13;6322423;28;20052;-67
2023/03/08 03:42:28;;;;;;;4.72;3.30;;;;;;;-6.80;61.11;96988.44;6321466;28;20052;-67
2023/03/08 03:45:32;;;;;;;4.43;2.85;;;;;;;-6.85;61.05;96977.34;6322190;28;20051;-66
2023/03/08 03:48:39;;;;;;;2.45;2.10;;;;;;;-6.59;60.48;97004.75;6322896;28;20627;-67
2023/03/08 03:51:45;;;;;;;8.05;4.10;;;;;;;-6.52;59.95;97008.19;6322396;28;20509;-68
2023/03/08 03:54:48;;;;;;;9.40;5.07;;;;;;;-6.60;60.16;97000.47;6321995;28;20059;-67
2023/03/08 03:57:55;;;;;;;7.28;3.85;;;;;;;-6.49;60.49;97019.28;6321548;28;20055;-68
2023/03/08 04:00:58;;;;;;;2.65;2.38;;;;;;;-6.37;60.31;97027.03;6321779;28;20051;-68
2023/03/08 04:04:00;;;;;;;3.17;2.15;;;;;;;-6.09;59.35;97034.78;6321113;28;20059;-68
2023/03/08 04:07:03;;;;;;;5.72;3.80;;;;;;;-6.03;58.33;97024.56;6322082;28;20040;-68
2023/03/08 04:10:05;;;;;;;2.75;2.45;;;;;;;-5.94;57.25;97024.59;6321468;28;20043;-68
2023/03/08 04:13:06;;;;;;;3.80;2.80;;;;;;;-5.78;57.48;97045.09;6321406;28;20051;-69
2023/03/08 04:16:11;;;;;;;5.85;4.05;;;;;;;-5.85;57.84;97038.25;6321982;28;20040;-67
2023/03/08 04:19:17;;;;;;;3.63;2.50;;;;;;;-5.90;57.00;97031.41;6321800;28;20040;-68
2023/03/08 04:22:21;;;;;;;6.55;3.78;;;;;;;-5.84;57.21;97042.50;6321701;28;20508;-67
2023/03/08 04:25:23;;;;;;;3.92;2.65;;;;;;;-5.92;57.57;97048.47;6320195;28;20530;-68
2023/03/08 04:28:29;;;;;;;4.95;3.42;;;;;;;-5.69;57.06;97045.97;6321779;28;20134;-67
2023/03/08 04:31:34;;;;;;;3.53;2.72;;;;;;;-5.56;57.21;97062.22;6321387;28;20051;-67
2023/03/08 04:34:35;;;;;;;3.13;2.00;;;;;;;-5.34;56.47;97059.69;6321423;28;20426;-67
2023/03/08 04:37:38;;;;;;;4.03;2.72;;;;;;;-5.33;55.80;97063.94;6321056;28;20059;-68
2023/03/08 04:44:24;;;;;;;5.05;2.85;;;;;;;-5.34;55.80;97050.28;6298526;28;20055;-68
2023/03/08 04:47:30;;;;;;;3.15;2.65;;;;;;;-5.18;55.92;97063.94;6319936;28;20048;-68
2023/03/08 04:50:38;;;;;;;4.63;3.00;;;;;;;-5.09;54.98;97063.97;6321279;28;20065;-68
2023/03/08 04:53:43;;;;;;;4.40;2.92;;;;;;;-4.99;54.13;97068.22;6320436;28;20052;-68
2023/03/08 04:56:44;;;;;;;4.03;2.95;;;;;;;-5.06;54.49;97073.38;6320447;28;20469;-68
2023/03/08 04:59:48;;;;;;;4.53;2.35;;;;;;;-5.05;55.20;97082.75;6320504;28;20048;-68
2023/03/08 05:02:52;;;;;;;6.32;3.60;;;;;;;-5.17;54.93;97068.22;6320183;28;20362;-69
2023/03/08 05:05:54;;;;;;;6.07;3.55;;;;;;;-5.07;54.41;97077.63;6319949;28;20051;-67
2023/03/08 05:09:01;;;;;;;5.25;3.70;;;;;;;-5.08;54.52;97086.19;6320258;28;20044;-68
2023/03/08 05:12:05;;;;;;;8.75;4.97;;;;;;;-5.16;54.67;97092.16;6320381;28;20040;-68
2023/03/08 05:15:07;;;;;;;8.02;5.07;;;;;;;-4.97;53.68;97089.59;6319639;28;20059;-67
2023/03/08 05:18:08;;;;;;;7.88;4.85;;;;;;;-5.13;54.06;97085.31;6319822;28;20063;-68
2023/03/08 05:21:16;;;;;;;6.57;4.30;;;;;;;-5.08;54.04;97083.63;6320272;28;20409;-68
2023/03/08 05:24:20;;;;;;;5.85;3.05;;;;;;;-4.96;54.32;97090.44;6320257;28;20408;-67
2023/03/08 05:27:24;;;;;;;5.45;3.40;;;;;;;-4.90;54.10;97095.56;6319327;28;20212;-67
2023/03/08 05:30:33;;;;;;;5.82;4.13;;;;;;;-5.02;55.01;97083.63;6320090;28;20526;-69
2023/03/08 05:33:38;;;;;;;5.45;4.57;;;;;;;-4.87;54.39;97089.59;6320508;28;20044;-69
2023/03/08 05:36:41;;;;;;;6.57;4.85;;;;;;;-4.98;55.34;97097.31;6320083;28;20056;-68
2023/03/08 05:39:47;;;;;;;10.20;6.07;;;;;;;-4.91;54.44;97095.59;6320009;28;20101;-69
2023/03/08 05:42:55;;;;;;;10.27;6.25;;;;;;;-4.97;54.31;97099.88;6319974;28;20567;-68
2023/03/08 05:46:02;;;;;;;8.75;5.40;;;;;;;-4.88;54.40;97109.28;6319232;28;20426;-69
2023/03/08 05:49:11;;;;;;;9.43;5.38;;;;;;;-1.52;50.25;97108.69;6301332;28;20048;-68
2023/03/08 05:52:12;;;;;;;6.20;4.38;;;;;;;2.99;39.91;97120.34;6319184;28;20055;-69
2023/03/08 05:55:14;;;;;;;6.07;2.95;;;;;;;5.86;34.02;97109.91;6319289;28;20430;-68
2023/03/08 05:58:16;;;;;;;7.88;4.25;;;;;;;7.82;30.15;97126.22;6317679;28;20049;-69
2023/03/08 06:01:20;;;;;;;6.30;4.70;;;;;;;8.82;28.52;97121.91;6319121;28;20393;-68
2023/03/08 06:04:21;;;;;;;4.45;4.05;;;;;;;9.59;26.58;97138.69;6318778;28;20052;-69
2023/03/08 06:07:30;;;;;;;6.22;4.95;;;;;;;10.66;25.82;97124.50;6319060;28;20044;-67
2023/03/08 06:10:31;;;;;;;7.57;4.65;;;;;;;11.94;24.18;97135.72;6319000;28;20393;-68
2023/03/08 06:13:35;;;;;;;4.10;3.70;;;;;;;12.90;23.04;97130.94;6318771;28;20039;-68
2023/03/08 06:16:40;;;;;;;5.32;3.50;;;;;;;13.75;21.80;97146.91;6319440;28;20047;-67
2023/03/08 06:19:41;;;;;;;4.20;3.35;;;;;;;14.04;20.91;97125.41;6318659;28;20040;-67
2023/03/08 06:22:45;;;;;;;4.78;4.13;;;;;;;14.40;20.19;97129.72;6319154;28;20040;-68
2023/03/08 06:25:49;;;;;;;4.20;3.33;;;;;;;14.09;20.17;97139.13;6318973;28;20421;-68
2023/03/08 06:28:50;;;;;;;;;;;;;;;14.60;20.52;97128.22;6319163;28;20044;-67
2023/03/08 06:31:51;;;;;;;5.63;4.82;;;;;;;14.39;20.00;97130.69;6319028;28;20326;-68
2023/03/08 06:34:55;;;;;;;7.03;4.18;;;;;;;13.55;20.55;97131.66;6317565;28;20520;-67
2023/03/08 06:38:00;;;;;;;8.15;5.65;;;;;;;12.46;21.18;97129.59;6318982;28;20083;-69
2023/03/08 06:41:07;;;;;;;16.08;8.00;;;;;;;11.55;22.25;97132.09;6317312;28;20170;-68
2023/03/08 06:44:11;;;;;;;10.00;6.55;;;;;;;12.88;20.80;97130.22;6318826;28;20097;-68
2023/03/08 06:47:16;;;;;;;5.88;4.57;;;;;;;13.47;20.55;97126.94;6319021;28;20109;-68
2023/03/08 06:50:21;;;;;;;5.55;4.20;;;;;;;13.76;20.29;97134.53;6323611;28;20425;-68
2023/03/08 06:53:25;;;;;;;6.10;3.55;;;;;;;12.66;20.97;97135.31;6323605;28;20460;-67
2023/03/08 06:56:29;;;;;;;4.60;4.10;;;;;;;12.09;21.90;97126.81;6323803;28;20097;-67
2023/03/08 06:59:34;;;;;;;4.15;3.42;;;;;;;13.07;21.65;97124.47;6323434;28;20035;-68
2023/03/08 07:02:38;;;;;;;4.93;3.85;;;;;;;13.65;19.85;97124.78;6323653;28;20100;-68
2023/03/08 07:05:44;;;;;;;4.90;3.50;;;;;;;11.94;20.99;97130.44;6322252;28;20047;-68
2023/03/08 07:08:49;;;;;;;3.97;3.05;;;;;;;11.09;21.90;97118.38;6323653;28;20578;-68
2023/03/08 07:11:52;;;;;;;;;;;;;;;10.41;22.92;97119.03;6323721;28;20054;-69
2023/03/08 07:14:57;;;;;;;3.80;3.45;;;;;;;9.33;24.03;97122.59;6323286;28;20037;-68
2023/03/08 07:18:02;;;;;;;4.20;2.63;;;;;;;8.80;24.55;97129.00;6323118;28;20494;-69
2023/03/08 07:21:09;;;;;;;3.20;2.45;;;;;;;8.09;25.35;97126.56;6322946;28;20098;-68
2023/03/08 07:24:13;;;;;;;5.90;3.88;;;;;;;7.05;27.00;97121.19;6322800;28;20154;-68
2023/03/08 07:27:18;;;;;;;5.90;4.32;;;;;;;5.88;28.39;97135.94;6322877;28;20089;-69
2023/03/08 07:30:24;;;;;;;5.18;4.00;;;;;;;5.70;28.92;97125.34;6322723;28;20444;-69
2023/03/08 07:33:29;;;;;;;5.35;3.05;;;;;;;5.82;29.15;97121.38;6322652;28;20159;-69
2023/03/08 07:36:34;;;;;;;4.93;3.67;;;;;;;6.53;28.26;97132.25;6322714;28;20047;-69
2023/03/08 07:39:40;;;;;;;6.60;4.03;;;;;;;6.56;28.00;97128.66;6322227;28;20105;-67
2023/03/08 07:42:44;;;;;;;4.20;3.63;;;;;;;5.90;28.95;97119.28;6322514;28;20105;-69
2023/03/08 07:45:48;;;;;;;;;;;;;;;5.81;29.17;97130.97;6322883;28;20137;-69
2023/03/08 07:48:52;;;;;;;4.60;3.40;;;;;;;4.82;30.26;97132.31;6321298;28;20014;-68
2023/03/08 07:51:56;;;;;;;;;;;;;;;4.42;31.07;97129.44;6322537;28;20133;-68
2023/03/08 07:55:01;;;;;;;6.70;4.28;;;;;;;3.38;32.64;97117.38;6322569;28;20411;-67
2023/03/08 07:58:07;;;;;;;7.43;4.20;;;;;;;3.18;33.39;97110.22;6321229;28;20425;-68
2023/03/08 08:01:13;;;;;;;6.47;4.30;;;;;;;3.11;33.32;97119.97;6321320;28;20106;-68
2023/03/08 08:04:18;;;;;;;4.22;3.60;;;;;;;2.60;33.97;97107.63;6322037;28;20622;-67
2023/03/08 08:07:23;;;;;;;6.30;4.32;;;;;;;2.18;35.19;97089.81;6321831;28;20390;-68
2023/03/08 08:10:28;;;;;;;6.15;4.30;;;;;;;2.35;35.00;97096.25;6321796;28;20528;-68
2023/03/08 08:13:34;;;;;;;4.95;3.78;;;;;;;2.50;35.24;97105.38;6322016;28;20105;-68
2023/03/08 08:16:39;;;;;;;3.40;2.38;;;;;;;2.56;35.14;97111.22;6321855;28;20505;-68
2023/03/08 08:19:43;;;;;;;5.18;2.90;;;;;;;2.39;35.02;97108.28;6321787;28;20051;-68
2023/03/08 08:22:50;;;;;;;3.47;2.90;;;;;;;2.03;35.37;97111.00;6321667;28;20036;-68
2023/03/08 08:25:55;;;;;;;4.78;3.65;;;;;;;1.85;35.52;97108.91;6321606;28;20097;-68
2023/03/08 08:29:02;;;;;;;4.45;3.28;;;;;;;1.73;36.18;97113.53;6321748;28;20416;-70
2023/03/08 08:32:06;;;;;;;3.53;2.67;;;;;;;1.59;36.54;97107.84;6321757;28;20040;-68
2023/03/08 08:35:11;;;;;;;3.33;2.90;;;;;;;1.39;37.59;97107.47;6321697;28;20047;-68
2023/03/08 08:38:16;;;;;;;3.08;2.53;;;;;;;0.85;38.74;97086.28;6321278;28;20075;-67
2023/03/08 08:41:22;;;;;;;3.15;2.85;;;;;;;0.74;38.50;97072.72;6321145;28;20542;-68
2023/03/08 08:44:29;;;;;;;3.10;2.80;;;;;;;0.54;39.16;97069.72;6321030;28;20047;-67
2023/03/08 08:47:34;;;;;;;3.53;2.50;;;;;;;0.71;39.29;97088.34;6320958;28;20136;-67
2023/03/08 08:50:40;;;;;;;3.10;2.50;;;;;;;0.45;39.37;97081.13;6319766;28;20047;-68
2023/03/08 08:53:44;;;;;;;3.25;2.50;;;;;;;-0.13;40.84;97062.47;6320656;28;20052;-68
2023/03/08 08:56:48;;;;;;;5.47;2.67;;;;;;;0.22;40.07;97047.97;6320857;28;20090;-68
2023/03/08 08:59:52;;;;;;;3.33;2.75;;;;;;;0.57;39.74;97042.03;6319356;28;20421;-67
2023/03/08 09:02:57;;;;;;;4.15;2.10;;;;;;;0.84;39.37;97056.06;6320463;28;20101;-69
2023/03/08 09:06:02;;;;;;;3.20;2.30;;;;;;;0.86;39.24;97046.53;6320330;28;20052;-68
2023/03/08 09:09:07;;;;;;;3.38;2.47;;;;;;;0.47;40.34;97042.28;6320572;28;20036;-68
2023/03/08 09:12:13;;;;;;;4.93;2.35;;;;;;;0.13;40.48;97043.00;6318881;28;20047;-68
2023/03/08 09:15:18;;;;;;;4.60;2.53;;;;;;;-0.05;41.87;97033.88;6320321;28;20044;-68
2023/03/08 09:18:23;;;;;;;4.68;2.67;;;;;;;0.18;41.55;97025.63;6320247;28;20131;-67
2023/03/08 09:21:30;;;;;;;3.83;2.88;;;;;;;0.96;41.16;97021.25;6320503;28;20032;-68
2023/03/08 09:24:35;;;;;;;2.85;2.25;;;;;;;1.83;39.36;97009.50;6319989;28;20100;-68
2023/03/08 09:27:41;;;;;;;3.45;2.38;;;;;;;2.24;38.79;97001.38;6320143;28;20043;-69
2023/03/08 09:30:45;;;;;;;4.05;2.95;;;;;;;2.34;38.55;96990.69;6320376;28;20481;-67
2023/03/08 09:33:51;;;;;;;3.17;1.98;;;;;;;2.02;39.06;96982.97;6319932;28;20040;-68
2023/03/08 09:36:57;;;;;;;3.72;2.53;;;;;;;1.34;40.46;96981.41;6319841;28;20109;-68
2023/03/08 09:40:08;;;;;;;5.10;3.03;;;;;;;0.78;42.05;96970.75;6319874;28;20543;-68
2023/03/08 09:43:23;;;;;;;2.40;1.45;;;;;;;0.44;43.35;96973.28;6319608;28;20043;-68
2023/03/08 09:46:37;;;;;;;2.92;2.30;;;;;;;-0.06;44.53;96965.78;6319503;28;20169;-68
2023/03/08 09:49:49;;;;;;;4.95;3.25;;;;;;;-0.46;46.40;96969.16;6318095;28;20059;-68
2023/03/08 09:53:40;;;;;;;1.83;1.73;;;;;;;-0.47;48.60;96979.56;6319549;28;20047;-68
2023/03/08 09:57:01;;;;;;;2.70;2.05;;;;;;;-0.80;50.09;96948.28;6302600;28;20075;-68
2023/03/08 10:00:18;;;;;;;2.58;2.20;;;;;;;-1.06;51.60;96942.75;6318947;28;20035;-68
2023/03/08 10:03:43;;;;;;;7.22;2.28;;;;;;;-1.23;52.25;96940.47;6319287;28;20530;-69
2023/03/08 10:07:12;;;;;;;4.25;2.70;;;;;;;-1.72;53.55;96949.88;6318911;28;20417;-69
2023/03/08 10:10:56;;;;;;;4.15;2.65;;;;;;;-1.82;55.08;96935.38;6317934;28;20176;-67
2023/03/08 10:14:15;;;;;;;3.90;3.13;;;;;;;-1.91;55.43;96918.31;6311286;28;20040;-68
2023/03/08 10:17:24;;;;;;;2.55;1.80;;;;;;;-1.87;55.81;96932.91;6319122;28;20061;-67
2023/03/08 10:20:31;;;;;;;6.78;3.75;;;;;;;-1.90;56.42;96938.06;6317276;28;20060;-68
2023/03/08 10:23:37;;;;;;;4.07;2.92;;;;;;;-2.11;57.04;96925.50;6317937;28;20050;-68
2023/03/08 10:26:42;;;;;;;6.28;2.65;;;;;;;-2.12;57.59;96931.56;6317494;28;20119;-67
2023/03/08 10:29:54;;;;;;;6.40;3.60;;;;;;;-2.35;58.01;96935.28;6318894;28;20126;-67
2023/03/08 10:33:03;;;;;;;11.70;6.00;;;;;;;-2.23;57.06;96943.72;6319472;28;20142;-67
2023/03/08 10:36:22;;;;;;;7.20;3.33;;;;;;;-2.42;57.71;96943.94;6317446;28;20036;-68
2023/03/08 10:39:27;;;;;;;6.60;4.18;;;;;;;-2.69;59.03;96949.44;6318880;28;20505;-69
2023/03/08 10:42:34;;;;;;;3.45;2.60;;;;;;;-2.56;58.58;96943.28;6318616;28;20105;-67
2023/03/08 10:45:36;;;;;;;4.53;2.78;;;;;;;-2.76;59.43;96928.06;6318653;28;20044;-67
2023/03/08 10:48:41;;;;;;;5.47;3.33;;;;;;;-2.98;60.92;96935.16;6318489;28;20428;-67
2023/03/08 10:52:01;;;;;;;11.82;5.10;;;;;;;-3.05;61.25;96938.69;6318417;28;20101;-68
2023/03/08 10:55:19;;;;;;;7.63;4.40;;;;;;;-2.80;61.63;96921.22;6317589;28;20046;-66
2023/03/08 10:58:32;;;;;;;6.28;4.70;;;;;;;-2.78;61.20;96934.94;6317334;28;20043;-67
2023/03/08 11:01:50;;;;;;;9.23;4.78;;;;;;;-2.85;62.13;96913.56;6318546;28;20074;-67
2023/03/08 11:04:58;;;;;;;8.07;4.05;;;;;;;-2.82;63.00;96934.13;6318902;28;20519;-68
2023/03/08 11:08:03;;;;;;;7.20;3.70;;;;;;;-2.83;63.22;96922.13;6318738;28;20484;-67
2023/03/08 11:11:11;;;;;;;10.10;4.55;;;;;;;-2.88;63.31;96916.19;6318579;28;20135;-68
2023/03/08 11:14:17;;;;;;;6.65;4.35;;;;;;;-3.01;63.88;96907.72;6318563;28;20090;-68
2023/03/08 11:17:38;;;;;;;7.93;4.55;;;;;;;-3.11;65.00;96925.84;6318353;28;20036;-69
2023/03/08 11:20:54;;;;;;;7.78;5.07;;;;;;;-3.03;65.18;96913.75;6316692;28;20040;-68
2023/03/08 11:24:22;;;;;;;8.27;4.88;;;;;;;-2.97;66.00;96887.97;6318139;28;20101;-67
2023/03/08 11:27:56;;;;;;;9.93;5.35;;;;;;;-3.02;65.68;96887.16;6318259;28;20105;-67
2023/03/08 11:31:50;;;;;;;9.97;4.67;;;;;;;-3.01;65.75;96901.72;6319029;28;20089;-69
2023/03/08 11:35:11;;;;;;;10.38;6.57;;;;;;;-3.04;66.13;96881.16;6276619;28;20450;-68
2023/03/08 11:38:19;;;;;;;12.65;6.90;;;;;;;-3.21;66.92;96936.22;6322803;28;20466;-68
2023/03/08 11:41:52;;;;;;;8.70;5.45;;;;;;;-3.22;67.40;96887.38;6322619;28;20040;-67
2023/03/08 11:45:07;;;;;;;7.90;4.43;;;;;;;-3.22;67.74;96887.38;6321594;28;20039;-67
2023/03/08 11:48:26;;;;;;;8.10;5.05;;;;;;;-3.16;68.09;96874.44;6322445;28;20055;-67
2023/03/08 11:51:57;;;;;;;6.38;4.38;;;;;;;-3.11;67.92;96858.94;6322741;28;20101;-68
2023/03/08 11:55:24;;;;;;;5.47;3.78;;;;;;;-3.14;68.74;96876.97;6322779;28;20407;-67
2023/03/08 11:58:34;;;;;;;7.22;4.25;;;;;;;-3.20;68.61;96859.88;6322402;28;20040;-68
2023/03/08 12:01:48;;;;;;;4.47;3.58;;;;;;;-3.09;69.16;96867.50;6322400;28;20048;-68
2023/03/08 12:05:02;;;;;;;5.43;4.18;;;;;;;-3.06;69.52;96854.59;6321331;28;20048;-67
2023/03/08 12:08:12;;;;;;;5.88;4.07;;;;;;;-3.00;69.76;96868.25;6321563;28;20056;-68
2023/03/08 12:11:33;;;;;;;6.32;3.75;;;;;;;-2.94;69.94;96867.34;6322208;28;20072;-67
2023/03/08 12:15:05;;;;;;;7.05;4.32;;;;;;;-2.92;70.37;96842.41;6321782;28;20040;-69
2023/03/08 12:18:40;;;;;;;3.88;3.38;;;;;;;-2.73;70.30;96837.88;6321838;28;20040;-67
2023/03/08 12:22:10;;;;;;;6.00;3.65;;;;;;;-2.74;70.64;96844.75;6321832;28;20036;-68
2023/03/08 12:25:33;;;;;;;4.22;3.60;;;;;;;-2.77;70.94;96833.66;6321418;28;20064;-68
2023/03/08 12:28:48;;;;;;;5.15;3.47;;;;;;;-2.68;70.67;96835.25;6321091;28;20066;-67
2023/03/08 12:31:52;;;;;;;3.30;2.88;;;;;;;-2.77;71.19;96826.78;6321072;28;20055;-67
2023/03/08 12:35:24;;;;;;;3.85;2.47;;;;;;;-2.66;71.41;96828.34;6321279;28;20042;-68
2023/03/08 12:38:41;;;;;;;3.25;2.95;;;;;;;-2.55;72.26;96840.22;6321252;28;20040;-68
2023/03/08 12:42:01;;;;;;;3.17;2.70;;;;;;;-2.51;72.51;96841.03;6321348;28;20039;-67
2023/03/08 12:45:29;;;;;;;3.25;2.88;;;;;;;-2.53;72.98;96845.34;6319450;28;20140;-68
2023/03/08 12:48:48;;;;;;;3.03;2.28;;;;;;;-2.42;73.19;96840.03;6320947;28;20044;-67
2023/03/08 12:52:17;;;;;;;2.65;2.40;;;;;;;-2.31;73.24;96849.31;6320985;28;20036;-67
2023/03/08 12:55:31;;;;;;;3.58;2.45;;;;;;;-2.21;72.76;96865.47;6270851;28;20052;-68
2023/03/08 12:58:37;;;;;;;3.20;2.67;;;;;;;-2.14;72.64;96861.09;6271014;28;20511;-67
2023/03/08 13:02:22;;;;;;;2.97;2.58;;;;;;;-2.07;73.08;96889.34;6270682;28;20127;-67
2023/03/08 13:05:36;;;;;;;3.92;2.20;;;;;;;-2.01;73.24;96859.19;6265252;28;20522;-68
2023/03/08 13:08:52;;;;;;;4.07;2.78;;;;;;;-2.07;72.94;96870.44;6270578;28;20100;-68
2023/03/08 13:12:19;;;;;;;;;;;;;;;-1.95;72.40;96888.31;6286292;28;20234;-67
2023/03/08 13:15:25;;;;;;;4.22;2.47;;;;;;;-1.98;72.55;96888.38;6270691;28;19916;-69
2023/03/08 13:18:31;;;;;;;6.53;2.50;;;;;;;-2.13;72.84;96875.69;6269108;28;20040;-69
2023/03/08 13:21:41;;;;;;;2.42;2.22;;;;;;;-2.20;73.32;96876.66;6270413;28;20045;-67
2023/03/08 13:24:53;;;;;;;1.48;1.40;;;;;;;-2.00;72.85;96882.38;6270474;28;20037;-68
2023/03/08 13:28:16;;;;;;;;;;;;;;;-1.86;73.16;96870.13;6271026;28;20048;-69
2023/03/08 13:31:25;;;;;;;2.70;2.35;;;;;;;-2.07;73.21;96873.88;6270510;28;20377;-67
2023/03/08 13:34:31;;;;;;;2.15;1.95;;;;;;;-2.07;73.44;96896.22;6270333;28;20514;-68
2023/03/08 13:37:35;;;;;;;3.83;2.33;;;;;;;-1.83;72.71;96890.69;6270450;28;20534;-68
2023/03/08 13:40:37;;;;;;;2.13;1.45;;;;;;;-1.84;72.47;96901.03;6269891;28;20064;-68
2023/03/08 13:43:40;;;;;;;4.63;3.85;;;;;;;-2.04;72.50;96903.91;6269771;28;20048;-68
2023/03/08 13:46:43;;;;;;;3.97;2.20;;;;;;;-1.97;73.05;96910.69;6270240;28;20383;-69
2023/03/08 13:49:51;;;;;;;2.30;1.38;;;;;;;-1.90;72.73;96922.59;6269863;28;20457;-68
2023/03/08 13:52:53;;;;;;;3.50;2.63;;;;;;;-2.03;73.25;96918.53;6284987;28;20146;-68
2023/03/08 13:56:00;;;;;;;9.93;4.93;;;;;;;-1.97;73.08;96920.16;6319538;28;20044;-70
2023/03/08 13:59:01;;;;;;;7.28;3.58;;;;;;;-1.94;73.43;96926.13;6318403;28;20063;-69
2023/03/08 14:02:20;;;;;;;6.00;3.28;;;;;;;-1.90;73.42;96938.06;6319568;28;20131;-68
2023/03/08 14:05:28;;;;;;;8.13;3.58;;;;;;;-2.16;73.82;96922.13;6319407;28;20394;-68
2023/03/08 14:08:33;;;;;;;8.15;4.20;;;;;;;-2.02;73.51;96922.78;6319106;28;20056;-69
2023/03/08 14:11:43;;;;;;;5.05;2.40;;;;;;;-1.77;72.65;96922.44;6319588;28;20047;-68
2023/03/08 14:14:54;;;;;;;2.75;2.20;;;;;;;-1.40;71.66;96931.28;6318963;28;20066;-69
2023/03/08 14:17:56;;;;;;;3.67;2.38;;;;;;;-1.31;71.39;96926.84;6319008;28;20054;-68
2023/03/08 14:21:15;;;;;;;3.55;2.40;;;;;;;-1.03;69.23;96930.63;6319363;28;20036;-67
2023/03/08 14:24:27;;;;;;;2.40;2.10;;;;;;;-0.77;68.03;96924.13;6319126;28;20052;-68
2023/03/08 14:27:41;;;;;;;1.73;1.63;;;;;;;-0.60;67.25;96916.91;6319756;28;20052;-68
2023/03/08 14:30:47;;;;;;;2.70;1.58;;;;;;;-0.49;66.24;96951.13;6318948;28;20047;-69
2023/03/08 14:34:00;;;;;;;1.90;1.80;;;;;;;-0.44;65.74;96932.13;6318404;28;20226;-68
2023/03/08 14:37:26;;;;;;;2.22;1.50;;;;;;;-0.54;66.38;96957.28;6318742;28;20083;-67
2023/03/08 14:40:35;;;;;;;2.57;2.10;;;;;;;-0.49;66.88;96960.63;6318618;28;20051;-68
2023/03/08 14:43:37;;;;;;;2.63;2.35;;;;;;;-0.53;66.96;96961.59;6318642;28;20442;-67
2023/03/08 14:46:38;;;;;;;1.85;1.75;;;;;;;-0.57;66.58;96896.16;6317784;28;20039;-68
2023/03/08 14:49:42;;;;;;;2.17;1.65;;;;;;;-0.50;66.91;96959.78;6319052;28;20414;-69
2023/03/08 14:52:48;;;;;;;1.85;1.75;;;;;;;-0.47;66.89;96939.03;6318794;28;20413;-68